Time;durP1;ratioP1;P1;durP2;ratioP2;P2;SDS_P1;SDS_P2;PMS_P1;PMS_P2;Temp;Humidity;BMP_temperature;BMP_pressure;BME280_temperature;BME280_humidity;BME280_pressure;Samples;Min_cycle;Max_cycle;Signal;HPM_P1;HPM_P2
2023/08/18 00:01:50;;;;;;;38.70;27.93;;;;;;;;;;5053112;28;20213;-70
2023/08/18 00:04:16;;;;;;;35.90;26.43;;;;;;;;;;5053859;28;20565;-70
2023/08/18 00:06:42;;;;;;;34.67;25.33;;;;;;;;;;5035592;28;20668;-69
2023/08/18 00:09:07;;;;;;;37.03;25.73;;;;;;;;;;5035687;28;20328;-70
2023/08/18 00:11:33;;;;;;;34.37;24.00;;;;;;;;;;5035181;28;20183;-70
2023/08/18 00:13:59;;;;;;;36.60;25.63;;;;;;;;;;5053416;28;20183;-70
2023/08/18 00:16:25;;;;;;;32.93;25.27;;;;;;;;;;5035127;28;20236;-70
2023/08/18 00:18:51;;;;;;;29.30;23.23;;;;;;;;;;5034887;28;20193;-70
2023/08/18 00:21:17;;;;;;;33.07;24.27;;;;;;;;;;5052826;28;20202;-70
2023/08/18 00:23:44;;;;;;;38.57;25.43;;;;;;;;;;5052487;28;20197;-70
2023/08/18 00:26:10;;;;;;;33.20;23.53;;;;;;;;;;5053140;28;20540;-70
2023/08/18 00:28:36;;;;;;;35.97;24.00;;;;;;;;;;5052522;28;20557;-70
2023/08/18 00:31:02;;;;;;;36.53;24.90;;;;;;;;;;5052464;28;20256;-70
2023/08/18 00:33:28;;;;;;;36.47;23.93;;;;;;;;;;5052516;28;20246;-70
2023/08/18 00:35:54;;;;;;;31.17;23.00;;;;;;;;;;5053386;28;20178;-69
2023/08/18 00:38:20;;;;;;;41.30;25.60;;;;;;;;;;5052434;28;20256;-69
2023/08/18 00:40:46;;;;;;;39.97;25.07;;;;;;;;;;5052495;28;20626;-70
2023/08/18 00:43:12;;;;;;;38.00;25.80;;;;;;;;;;5053780;28;20684;-69
2023/08/18 00:45:38;;;;;;;39.63;26.37;;;;;;;;;;5056105;28;20174;-70
2023/08/18 00:48:04;;;;;;;41.10;25.97;;;;;;;;;;5056047;28;20177;-71
2023/08/18 00:50:30;;;;;;;42.03;26.17;;;;;;;;;;5055991;28;20262;-70
2023/08/18 00:52:58;;;;;;;46.60;26.83;;;;;;;;;;5055868;28;20657;-70
2023/08/18 00:55:24;;;;;;;45.00;27.77;;;;;;;;;;5056074;28;20179;-70
2023/08/18 00:57:50;;;;;;;43.07;27.20;;;;;;;;;;5056238;28;20555;-70
2023/08/18 01:00:16;;;;;;;45.20;27.63;;;;;;;;;;5055764;28;20199;-70
2023/08/18 01:02:42;;;;;;;48.40;30.47;;;;;;;;;;5055694;28;20218;-70
2023/08/18 01:05:08;;;;;;;46.47;27.70;;;;;;;;;;5037837;28;20596;-70
2023/08/18 01:07:34;;;;;;;44.90;29.63;;;;;;;;;;5037771;28;20194;-70
2023/08/18 01:10:00;;;;;;;45.17;28.23;;;;;;;;;;5055736;28;20179;-70
2023/08/18 01:12:35;;;;;;;44.37;29.37;;;;;;;;;;5055539;28;20217;-70
2023/08/18 01:15:13;;;;;;;48.87;28.30;;;;;;;;;;5055764;28;20170;-70
2023/08/18 01:17:51;;;;;;;44.50;31.40;;;;;;;;;;5037793;28;20678;-70
2023/08/18 01:20:17;;;;;;;51.23;33.27;;;;;;;;;;5055557;28;20194;-71
2023/08/18 01:22:45;;;;;;;47.70;33.90;;;;;;;;;;5037487;28;20203;-70
2023/08/18 01:25:11;;;;;;;49.60;35.33;;;;;;;;;;5055647;28;20174;-71
2023/08/18 01:27:37;;;;;;;52.37;34.27;;;;;;;;;;5055421;28;20771;-70
2023/08/18 01:30:03;;;;;;;49.20;33.23;;;;;;;;;;5055421;28;20204;-70
2023/08/18 01:32:31;;;;;;;51.80;35.13;;;;;;;;;;5055254;28;20591;-70
2023/08/18 01:34:59;;;;;;;53.40;35.23;;;;;;;;;;5055260;28;20254;-71
2023/08/18 01:37:26;;;;;;;52.27;35.77;;;;;;;;;;5038090;28;20186;-70
2023/08/18 01:39:53;;;;;;;50.20;36.10;;;;;;;;;;5037037;28;20202;-69
2023/08/18 01:42:19;;;;;;;58.67;39.57;;;;;;;;;;5055040;28;20222;-70
2023/08/18 01:44:45;;;;;;;56.37;38.00;;;;;;;;;;5055022;28;20170;-70
2023/08/18 01:47:11;;;;;;;53.17;36.67;;;;;;;;;;5055283;28;20179;-70
2023/08/18 01:49:37;;;;;;;66.77;44.07;;;;;;;;;;5037565;28;20279;-70
2023/08/18 01:52:03;;;;;;;59.83;41.70;;;;;;;;;;5055090;28;20575;-70
2023/08/18 01:54:29;;;;;;;66.83;45.07;;;;;;;;;;5054354;28;20308;-70
2023/08/18 01:56:54;;;;;;;69.03;45.20;;;;;;;;;;5054814;28;20746;-70
2023/08/18 01:59:20;;;;;;;72.77;46.53;;;;;;;;;;5054913;28;20186;-70
2023/08/18 02:01:46;;;;;;;75.83;50.23;;;;;;;;;;5054707;28;20206;-70
2023/08/18 02:04:12;;;;;;;73.80;48.20;;;;;;;;;;5054667;28;20178;-70
2023/08/18 02:06:38;;;;;;;74.30;48.07;;;;;;;;;;5054615;28;20174;-70
2023/08/18 02:09:05;;;;;;;82.87;51.53;;;;;;;;;;5054540;28;20178;-70
2023/08/18 02:11:31;;;;;;;79.50;52.97;;;;;;;;;;5054621;28;20688;-70
2023/08/18 02:13:57;;;;;;;69.27;47.33;;;;;;;;;;5054470;28;20184;-70
2023/08/18 02:16:23;;;;;;;56.80;38.13;;;;;;;;;;5055070;28;20185;-70
2023/08/18 02:18:49;;;;;;;55.25;39.90;;;;;;;;;;5054158;28;20411;-70
2023/08/18 02:21:15;;;;;;;60.77;42.70;;;;;;;;;;5036607;28;20247;-70
2023/08/18 02:23:41;;;;;;;59.43;41.63;;;;;;;;;;5054429;28;20719;-70
2023/08/18 02:26:07;;;;;;;52.47;38.20;;;;;;;;;;5054443;28;20637;-70
2023/08/18 02:28:34;;;;;;;54.23;39.10;;;;;;;;;;5054752;28;20185;-69
2023/08/18 02:31:01;;;;;;;53.43;40.67;;;;;;;;;;5037073;28;20192;-70
2023/08/18 02:33:28;;;;;;;55.63;39.10;;;;;;;;;;5037037;28;20688;-70
2023/08/18 02:35:54;;;;;;;52.63;38.00;;;;;;;;;;5037346;28;20197;-69
2023/08/18 02:38:20;;;;;;;49.30;33.07;;;;;;;;;;5054896;28;20246;-69
2023/08/18 02:40:46;;;;;;;43.27;29.73;;;;;;;;;;5054450;28;20198;-69
2023/08/18 02:43:12;;;;;;;32.10;19.77;;;;;;;;;;5054175;28;20286;-69
2023/08/18 02:45:38;;;;;;;42.67;29.23;;;;;;;;;;5054960;28;20171;-70
2023/08/18 02:48:04;;;;;;;39.37;26.17;;;;;;;;;;5036218;28;20747;-70
2023/08/18 02:50:30;;;;;;;45.73;32.40;;;;;;;;;;5054050;28;20189;-70
2023/08/18 02:53:00;;;;;;;52.00;36.22;;;;;;;;;;5034404;28;20382;-70
2023/08/18 02:55:27;;;;;;;47.97;31.83;;;;;;;;;;5052906;28;20504;-71
2023/08/18 02:57:53;;;;;;;47.83;31.77;;;;;;;;;;5036052;28;20182;-70
2023/08/18 03:00:19;;;;;;;44.20;30.63;;;;;;;;;;5053897;28;20698;-70
2023/08/18 03:02:45;;;;;;;39.97;27.03;;;;;;;;;;5035667;28;20680;-70
2023/08/18 03:05:11;;;;;;;37.07;28.37;;;;;;;;;;5053819;28;20280;-70
2023/08/18 03:07:37;;;;;;;43.17;29.90;;;;;;;;;;5052574;28;20253;-70
2023/08/18 03:10:03;;;;;;;53.80;37.47;;;;;;;;;;5051969;28;20724;-70
2023/08/18 03:12:29;;;;;;;40.57;27.23;;;;;;;;;;5053212;28;20739;-70
2023/08/18 03:14:55;;;;;;;36.87;25.17;;;;;;;;;;5053882;28;20213;-70
2023/08/18 03:17:21;;;;;;;39.03;27.97;;;;;;;;;;5053181;28;20671;-70
2023/08/18 03:19:47;;;;;;;37.63;26.10;;;;;;;;;;5053173;28;20244;-70
2023/08/18 03:22:13;;;;;;;42.90;30.87;;;;;;;;;;5035226;28;20221;-70
2023/08/18 03:24:39;;;;;;;43.17;32.17;;;;;;;;;;5053124;28;20182;-70
2023/08/18 03:27:05;;;;;;;48.77;33.87;;;;;;;;;;5053038;28;20213;-70
2023/08/18 03:29:31;;;;;;;53.57;35.37;;;;;;;;;;5035298;28;20186;-70
2023/08/18 03:31:57;;;;;;;50.60;34.83;;;;;;;;;;5052939;28;20202;-70
2023/08/18 03:34:23;;;;;;;54.00;35.00;;;;;;;;;;5053930;28;20231;-70
2023/08/18 03:36:49;;;;;;;58.93;39.00;;;;;;;;;;5035287;28;20170;-71
2023/08/18 03:39:15;;;;;;;68.63;44.10;;;;;;;;;;5053810;28;20167;-70
2023/08/18 03:41:41;;;;;;;64.47;41.90;;;;;;;;;;5053273;28;20206;-70
2023/08/18 03:44:07;;;;;;;67.57;46.23;;;;;;;;;;5053518;28;20232;-70
2023/08/18 03:46:33;;;;;;;62.80;41.90;;;;;;;;;;5053532;28;20186;-70
2023/08/18 03:48:59;;;;;;;64.30;41.13;;;;;;;;;;5053421;28;20586;-70
2023/08/18 03:51:25;;;;;;;63.70;40.47;;;;;;;;;;5035026;28;20280;-70
2023/08/18 03:53:52;;;;;;;69.17;42.83;;;;;;;;;;5035294;28;20288;-70
2023/08/18 03:56:18;;;;;;;61.67;39.70;;;;;;;;;;5054231;28;20190;-70
2023/08/18 03:58:44;;;;;;;59.43;32.77;;;;;;;;;;5056550;28;20175;-70
2023/08/18 04:01:10;;;;;;;62.10;37.80;;;;;;;;;;5053398;28;20209;-70
2023/08/18 04:03:36;;;;;;;69.07;37.83;;;;;;;;;;5035379;28;20202;-70
2023/08/18 04:06:03;;;;;;;63.93;36.00;;;;;;;;;;5053065;28;20217;-71
2023/08/18 04:08:30;;;;;;;70.23;39.13;;;;;;;;;;5052997;28;20185;-70
2023/08/18 04:10:56;;;;;;;71.63;39.13;;;;;;;;;;5034724;28;20663;-71
2023/08/18 04:13:22;;;;;;;67.80;37.30;;;;;;;;;;5052825;28;20202;-71
2023/08/18 04:15:48;;;;;;;65.90;37.93;;;;;;;;;;5052710;28;20179;-71
2023/08/18 04:18:14;;;;;;;65.57;37.03;;;;;;;;;;5054377;28;20182;-70
2023/08/18 04:20:40;;;;;;;61.40;33.37;;;;;;;;;;5038747;28;20206;-70
2023/08/18 04:23:06;;;;;;;64.07;37.07;;;;;;;;;;5056449;28;20267;-70
2023/08/18 04:25:32;;;;;;;54.37;31.70;;;;;;;;;;5056606;28;20554;-70
2023/08/18 04:27:58;;;;;;;64.33;34.73;;;;;;;;;;5056647;28;20189;-71
2023/08/18 04:30:24;;;;;;;60.77;32.93;;;;;;;;;;5056707;28;20182;-71
2023/08/18 04:32:50;;;;;;;70.40;37.40;;;;;;;;;;5058251;28;20267;-71
2023/08/18 04:35:16;;;;;;;64.70;36.03;;;;;;;;;;5056533;28;20210;-72
2023/08/18 04:37:42;;;;;;;63.83;36.73;;;;;;;;;;5038663;28;20194;-71
2023/08/18 04:40:09;;;;;;;66.93;35.87;;;;;;;;;;5056473;28;20199;-70
2023/08/18 04:42:35;;;;;;;60.37;32.90;;;;;;;;;;5038512;28;20575;-70
2023/08/18 04:45:00;;;;;;;75.80;37.07;;;;;;;;;;5038444;28;20171;-70
2023/08/18 04:47:26;;;;;;;60.33;32.87;;;;;;;;;;5056444;28;20244;-71
2023/08/18 04:49:52;;;;;;;57.43;32.07;;;;;;;;;;5056016;28;20179;-70
2023/08/18 04:52:19;;;;;;;62.87;35.00;;;;;;;;;;5038170;28;20575;-70
2023/08/18 04:54:45;;;;;;;66.27;36.30;;;;;;;;;;5038210;28;20664;-71
2023/08/18 04:57:11;;;;;;;58.77;33.73;;;;;;;;;;5055861;28;20186;-70
2023/08/18 04:59:37;;;;;;;52.53;29.17;;;;;;;;;;5056411;28;20718;-70
2023/08/18 05:02:03;;;;;;;59.20;32.83;;;;;;;;;;5055904;28;20661;-70
2023/08/18 05:04:29;;;;;;;55.10;33.13;;;;;;;;;;5055928;28;20608;-71
2023/08/18 05:06:55;;;;;;;57.97;34.97;;;;;;;;;;5056089;28;20196;-71
2023/08/18 05:09:21;;;;;;;63.73;37.47;;;;;;;;;;5055731;28;20170;-72
2023/08/18 05:11:47;;;;;;;61.30;36.93;;;;;;;;;;5055662;28;20178;-71
2023/08/18 05:14:13;;;;;;;66.93;37.93;;;;;;;;;;5055772;28;20751;-71
2023/08/18 05:16:39;;;;;;;75.70;40.40;;;;;;;;;;5055596;28;20178;-70
2023/08/18 05:19:05;;;;;;;70.83;40.23;;;;;;;;;;5055614;28;20632;-70
2023/08/18 05:21:31;;;;;;;69.93;40.73;;;;;;;;;;5037498;28;20202;-70
2023/08/18 05:23:57;;;;;;;61.57;37.67;;;;;;;;;;5055397;28;20174;-70
2023/08/18 05:26:23;;;;;;;62.10;36.87;;;;;;;;;;5056016;28;20327;-70
2023/08/18 05:28:49;;;;;;;64.97;40.20;;;;;;;;;;5054996;28;20178;-70
2023/08/18 05:31:15;;;;;;;69.30;41.93;;;;;;;;;;5055237;28;20175;-70
2023/08/18 05:33:41;;;;;;;69.97;42.17;;;;;;;;;;5055345;28;20236;-71
2023/08/18 05:36:07;;;;;;;63.20;40.20;;;;;;;;;;5055437;28;20186;-70
2023/08/18 05:38:34;;;;;;;58.10;36.23;;;;;;;;;;5055480;28;20571;-70
2023/08/18 05:41:06;;;;;;;59.17;36.57;;;;;;;;;;5056129;28;20355;-71
2023/08/18 05:43:37;;;;;;;57.70;36.30;;;;;;;;;;5055586;28;20198;-70
2023/08/18 05:46:03;;;;;;;56.13;38.23;;;;;;;;;;5055434;28;20621;-70
2023/08/18 05:48:30;;;;;;;64.77;40.37;;;;;;;;;;5055271;28;20193;-70
2023/08/18 05:50:56;;;;;;;65.57;39.73;;;;;;;;;;5037112;28;20622;-70
2023/08/18 05:53:22;;;;;;;64.87;40.23;;;;;;;;;;5054922;28;20242;-70
2023/08/18 05:55:48;;;;;;;73.23;44.40;;;;;;;;;;5037138;28;20217;-71
2023/08/18 05:58:14;;;;;;;69.20;43.50;;;;;;;;;;5055046;28;20186;-70
2023/08/18 06:00:41;;;;;;;77.23;46.67;;;;;;;;;;5055006;28;20194;-70
2023/08/18 06:03:07;;;;;;;90.10;50.33;;;;;;;;;;5054914;28;20190;-71
2023/08/18 06:05:34;;;;;;;96.57;50.67;;;;;;;;;;5054758;28;20710;-71
2023/08/18 06:08:00;;;;;;;103.13;53.13;;;;;;;;;;5054946;28;20216;-71
2023/08/18 06:10:26;;;;;;;103.10;53.40;;;;;;;;;;5055420;28;20189;-70
2023/08/18 06:12:52;;;;;;;111.53;55.30;;;;;;;;;;5054486;28;20201;-71
2023/08/18 06:15:20;;;;;;;121.40;56.83;;;;;;;;;;5054676;28;20289;-70
2023/08/18 06:17:46;;;;;;;116.50;55.57;;;;;;;;;;5036378;28;20182;-70
2023/08/18 06:20:12;;;;;;;112.50;55.13;;;;;;;;;;5054817;28;20661;-70
2023/08/18 06:22:38;;;;;;;120.63;56.27;;;;;;;;;;5054253;28;20204;-71
2023/08/18 06:25:05;;;;;;;110.37;57.60;;;;;;;;;;5054503;28;20206;-71
2023/08/18 06:27:31;;;;;;;116.03;58.77;;;;;;;;;;5036717;28;20655;-70
2023/08/18 06:29:57;;;;;;;103.60;50.27;;;;;;;;;;5054487;28;20213;-70
2023/08/18 06:32:23;;;;;;;115.90;58.53;;;;;;;;;;5054001;28;20716;-70
2023/08/18 06:34:50;;;;;;;97.93;52.93;;;;;;;;;;5054068;28;20182;-70
2023/08/18 06:37:16;;;;;;;104.70;55.30;;;;;;;;;;5053979;28;20220;-70
2023/08/18 06:39:42;;;;;;;93.67;51.13;;;;;;;;;;5054020;28;20191;-70
2023/08/18 06:42:08;;;;;;;80.60;45.57;;;;;;;;;;5053805;28;20305;-70
2023/08/18 06:44:34;;;;;;;83.50;48.13;;;;;;;;;;5054356;28;20178;-70
2023/08/18 06:47:00;;;;;;;93.63;52.30;;;;;;;;;;5053972;28;20231;-70
2023/08/18 06:49:26;;;;;;;90.80;53.33;;;;;;;;;;5054014;28;20175;-70
2023/08/18 06:51:52;;;;;;;85.67;48.50;;;;;;;;;;5053816;28;20694;-70
2023/08/18 06:54:18;;;;;;;78.17;47.03;;;;;;;;;;5053834;28;20186;-70
2023/08/18 06:56:44;;;;;;;66.03;37.97;;;;;;;;;;5053686;28;20179;-70
2023/08/18 06:59:12;;;;;;;61.23;37.07;;;;;;;;;;5053654;28;20224;-70
2023/08/18 07:01:38;;;;;;;62.10;36.97;;;;;;;;;;5053858;28;20300;-70
2023/08/18 07:04:04;;;;;;;70.87;39.43;;;;;;;;;;5054207;28;20226;-70
2023/08/18 07:06:30;;;;;;;70.23;41.10;;;;;;;;;;5053904;28;20179;-71
2023/08/18 07:08:56;;;;;;;68.00;37.83;;;;;;;;;;5054014;28;20178;-70
2023/08/18 07:11:22;;;;;;;58.43;35.20;;;;;;;;;;5036118;28;20204;-70
2023/08/18 07:13:48;;;;;;;46.00;27.50;;;;;;;;;;5055354;28;20205;-70
2023/08/18 07:16:14;;;;;;;46.17;26.83;;;;;;;;;;5054489;28;20183;-70
2023/08/18 07:18:40;;;;;;;45.40;30.07;;;;;;;;;;5054558;28;20183;-70
2023/08/18 07:21:06;;;;;;;44.77;27.97;;;;;;;;;;5057205;28;20682;-70
2023/08/18 07:23:32;;;;;;;49.10;31.07;;;;;;;;;;5054351;28;20271;-70
2023/08/18 07:25:58;;;;;;;48.27;29.97;;;;;;;;;;5035830;28;20632;-70
2023/08/18 07:28:24;;;;;;;56.63;34.37;;;;;;;;;;5036243;28;20178;-70
2023/08/18 07:30:50;;;;;;;47.30;30.70;;;;;;;;;;5035593;28;20183;-70
2023/08/18 07:33:16;;;;;;;52.27;31.07;;;;;;;;;;5053254;28;20220;-70
2023/08/18 07:35:42;;;;;;;48.33;32.30;;;;;;;;;;5035310;28;20186;-70
2023/08/18 07:38:08;;;;;;;51.47;30.07;;;;;;;;;;5053247;28;20183;-70
2023/08/18 07:40:34;;;;;;;46.17;30.80;;;;;;;;;;5035099;28;20209;-70
2023/08/18 07:43:00;;;;;;;54.47;36.37;;;;;;;;;;5035030;28;20289;-70
2023/08/18 07:45:26;;;;;;;52.93;33.60;;;;;;;;;;5053048;28;20217;-70
2023/08/18 07:47:53;;;;;;;55.53;36.43;;;;;;;;;;5052926;28;20181;-70
2023/08/18 07:50:19;;;;;;;57.13;35.83;;;;;;;;;;5053098;28;20253;-70
2023/08/18 07:52:45;;;;;;;55.77;37.07;;;;;;;;;;5034445;28;20244;-70
2023/08/18 07:55:11;;;;;;;53.10;35.03;;;;;;;;;;5052993;28;20209;-70
2023/08/18 07:57:40;;;;;;;45.40;32.40;;;;;;;;;;5052904;28;20182;-70
2023/08/18 08:00:16;;;;;;;38.13;28.57;;;;;;;;;;5052679;28;20741;-70
2023/08/18 08:02:41;;;;;;;42.17;29.40;;;;;;;;;;5053114;28;20286;-70
2023/08/18 08:05:08;;;;;;;42.90;29.47;;;;;;;;;;5052915;28;20309;-70
2023/08/18 08:07:34;;;;;;;35.90;25.63;;;;;;;;;;5054175;28;20182;-70
2023/08/18 08:10:03;;;;;;;39.10;27.90;;;;;;;;;;5052825;28;20190;-70
2023/08/18 08:12:34;;;;;;;38.13;28.10;;;;;;;;;;5052868;28;20710;-70
2023/08/18 08:15:01;;;;;;;44.40;30.67;;;;;;;;;;5053110;28;20288;-70
2023/08/18 08:17:29;;;;;;;38.53;30.07;;;;;;;;;;5034929;28;20570;-70
2023/08/18 08:19:56;;;;;;;39.50;29.60;;;;;;;;;;5034943;28;20198;-70
2023/08/18 08:22:22;;;;;;;41.93;31.70;;;;;;;;;;5054087;28;20194;-72
2023/08/18 08:24:50;;;;;;;40.77;29.73;;;;;;;;;;5035293;28;20200;-70
2023/08/18 08:27:16;;;;;;;41.90;31.00;;;;;;;;;;5034780;28;20178;-70
2023/08/18 08:29:42;;;;;;;37.57;30.17;;;;;;;;;;5053294;28;20179;-70
2023/08/18 08:32:08;;;;;;;37.17;28.87;;;;;;;;;;5052640;28;20228;-70
2023/08/18 08:34:34;;;;;;;37.03;26.87;;;;;;;;;;5052694;28;20174;-70
2023/08/18 08:37:00;;;;;;;37.70;29.63;;;;;;;;;;5034659;28;20191;-70
2023/08/18 08:39:26;;;;;;;37.57;30.03;;;;;;;;;;5052695;28;20235;-70
2023/08/18 08:41:52;;;;;;;39.77;29.87;;;;;;;;;;5052682;28;20214;-70
2023/08/18 08:44:18;;;;;;;34.37;27.67;;;;;;;;;;5052828;28;20179;-71
2023/08/18 08:46:44;;;;;;;35.00;26.73;;;;;;;;;;5052600;28;20255;-70
2023/08/18 08:49:12;;;;;;;30.83;25.57;;;;;;;;;;5034887;28;20178;-70
2023/08/18 08:51:40;;;;;;;30.57;25.17;;;;;;;;;;5034973;28;20233;-70
2023/08/18 08:54:07;;;;;;;29.37;23.13;;;;;;;;;;5052773;28;20565;-70
2023/08/18 08:56:34;;;;;;;28.27;25.20;;;;;;;;;;5035254;28;20214;-70
2023/08/18 08:59:01;;;;;;;30.97;26.73;;;;;;;;;;5035204;28;20209;-70
2023/08/18 09:01:27;;;;;;;31.63;27.30;;;;;;;;;;5058248;28;20202;-70
2023/08/18 09:03:54;;;;;;;28.57;24.67;;;;;;;;;;5053001;28;20269;-70
2023/08/18 09:06:20;;;;;;;29.50;25.30;;;;;;;;;;5055823;28;20179;-70
2023/08/18 09:08:46;;;;;;;28.97;23.87;;;;;;;;;;5056160;28;20183;-70
2023/08/18 09:11:12;;;;;;;29.20;26.00;;;;;;;;;;5055942;28;20186;-70
2023/08/18 09:13:39;;;;;;;31.40;26.43;;;;;;;;;;5037737;28;20203;-70
2023/08/18 09:16:08;;;;;;;28.90;25.80;;;;;;;;;;5055652;28;20199;-70
2023/08/18 09:18:35;;;;;;;29.83;25.70;;;;;;;;;;5055605;28;20256;-70
2023/08/18 09:21:04;;;;;;;32.20;26.37;;;;;;;;;;5055606;28;20213;-70
2023/08/18 09:23:30;;;;;;;30.07;25.87;;;;;;;;;;5037844;28;20202;-70
2023/08/18 09:26:00;;;;;;;31.63;27.70;;;;;;;;;;5055719;28;20194;-70
2023/08/18 09:28:26;;;;;;;29.97;25.73;;;;;;;;;;5055489;28;20562;-70
2023/08/18 09:30:53;;;;;;;31.20;26.37;;;;;;;;;;5055464;28;20205;-70
2023/08/18 09:33:23;;;;;;;28.87;24.60;;;;;;;;;;5055309;28;20217;-70
2023/08/18 09:35:56;;;;;;;30.60;26.27;;;;;;;;;;5055510;22;20234;-64
2023/08/18 09:38:25;;;;;;;31.97;25.43;;;;;;;;;;5019266;28;20164;-65
2023/08/18 09:40:57;;;;;;;30.10;25.80;;;;;;;;;;5019561;28;20264;-65
2023/08/18 09:43:24;;;;;;;35.60;25.60;;;;;;;;;;5037176;28;20179;-64
2023/08/18 09:45:52;;;;;;;26.77;23.90;;;;;;;;;;5036743;28;20195;-64
2023/08/18 09:48:21;;;;;;;28.20;25.10;;;;;;;;;;5036911;28;20179;-66
2023/08/18 09:50:49;;;;;;;24.77;22.07;;;;;;;;;;5036630;28;20175;-65
2023/08/18 09:53:15;;;;;;;24.47;21.97;;;;;;;;;;5018858;28;20218;-64
2023/08/18 09:55:46;;;;;;;24.43;20.23;;;;;;;;;;5036078;28;20195;-66
2023/08/18 09:58:33;;;;;;;23.13;20.63;;;;;;;;;;5036460;28;20163;-66
2023/08/18 10:00:59;;;;;;;23.37;20.90;;;;;;;;;;5036472;28;20206;-65
2023/08/18 10:03:26;;;;;;;23.73;20.57;;;;;;;;;;5036358;28;20186;-65
2023/08/18 10:05:53;;;;;;;24.70;21.20;;;;;;;;;;5018836;28;20195;-65
2023/08/18 10:08:20;;;;;;;22.87;20.57;;;;;;;;;;5036129;28;20251;-65
2023/08/18 10:10:46;;;;;;;21.70;19.37;;;;;;;;;;5036554;28;20187;-65
2023/08/18 10:13:14;;;;;;;23.27;19.77;;;;;;;;;;5018397;28;20234;-66
2023/08/18 10:15:40;;;;;;;20.80;18.70;;;;;;;;;;5035362;28;20230;-66
2023/08/18 10:18:09;;;;;;;24.07;19.40;;;;;;;;;;5018143;28;20183;-65
2023/08/18 10:20:35;;;;;;;27.90;20.37;;;;;;;;;;5035726;28;20681;-65
2023/08/18 10:23:02;;;;;;;20.63;18.53;;;;;;;;;;5036166;28;20176;-68
2023/08/18 10:25:29;;;;;;;21.90;19.70;;;;;;;;;;5036044;28;20215;-64
2023/08/18 10:27:55;;;;;;;23.03;20.73;;;;;;;;;;5036093;28;20167;-66
2023/08/18 10:30:21;;;;;;;19.80;17.80;;;;;;;;;;5037538;28;20175;-65
2023/08/18 10:32:47;;;;;;;21.33;19.13;;;;;;;;;;5036370;28;20259;-67
2023/08/18 10:35:23;;;;;;;24.63;22.17;;;;;;;;;;5035798;28;20184;-67
2023/08/18 10:38:01;;;;;;;30.37;25.67;;;;;;;;;;5036338;28;20194;-64
2023/08/18 10:40:29;;;;;;;31.10;25.00;;;;;;;;;;5034172;28;20228;-64
2023/08/18 10:43:02;;;;;;;27.60;25.00;;;;;;;;;;5035194;28;20179;-63
2023/08/18 10:45:28;;;;;;;26.67;24.07;;;;;;;;;;5016713;28;20199;-66
2023/08/18 10:47:57;;;;;;;27.63;24.83;;;;;;;;;;5034425;28;20459;-64
2023/08/18 10:50:24;;;;;;;29.67;26.57;;;;;;;;;;5016992;28;20278;-64
2023/08/18 10:52:55;;;;;;;30.17;26.87;;;;;;;;;;5034848;28;20607;-63
2023/08/18 10:55:21;;;;;;;28.77;25.80;;;;;;;;;;5034720;28;20593;-63
2023/08/18 10:57:47;;;;;;;26.57;24.13;;;;;;;;;;5017209;28;20183;-64
2023/08/18 11:00:15;;;;;;;26.37;23.63;;;;;;;;;;5017670;28;20210;-68
2023/08/18 11:02:42;;;;;;;29.30;26.17;;;;;;;;;;5034554;28;20175;-65
2023/08/18 11:05:09;;;;;;;27.97;25.23;;;;;;;;;;5034900;28;20175;-65
2023/08/18 11:07:36;;;;;;;28.70;25.80;;;;;;;;;;5016805;28;20202;-65
2023/08/18 11:10:06;;;;;;;26.70;23.90;;;;;;;;;;5035432;28;20175;-65
2023/08/18 11:12:32;;;;;;;27.53;24.70;;;;;;;;;;5034925;28;20171;-64
2023/08/18 11:14:58;;;;;;;27.37;24.43;;;;;;;;;;5016648;28;20190;-64
2023/08/18 11:17:24;;;;;;;29.27;26.20;;;;;;;;;;5034302;28;20259;-63
2023/08/18 11:19:50;;;;;;;27.37;24.57;;;;;;;;;;5034394;28;20183;-64
2023/08/18 11:22:16;;;;;;;28.00;25.13;;;;;;;;;;5034267;28;20179;-64
2023/08/18 11:24:43;;;;;;;29.67;26.77;;;;;;;;;;5016718;28;20179;-65
2023/08/18 11:27:09;;;;;;;31.33;28.00;;;;;;;;;;5033545;28;20253;-64
2023/08/18 11:29:35;;;;;;;29.30;26.40;;;;;;;;;;5034188;28;20186;-65
2023/08/18 11:32:02;;;;;;;28.83;25.13;;;;;;;;;;5034011;28;20183;-66
2023/08/18 11:34:28;;;;;;;30.10;27.10;;;;;;;;;;5016159;28;20186;-64
2023/08/18 11:37:02;;;;;;;32.53;29.23;;;;;;;;;;5033658;28;20210;-65
2023/08/18 11:39:31;;;;;;;33.73;29.40;;;;;;;;;;5033745;28;20285;-63
2023/08/18 11:41:57;;;;;;;28.83;26.03;;;;;;;;;;5033443;28;20206;-65
2023/08/18 11:44:24;;;;;;;32.90;28.80;;;;;;;;;;5033607;28;20175;-65
2023/08/18 11:46:51;;;;;;;29.33;26.23;;;;;;;;;;5033864;28;20715;-63
2023/08/18 11:49:18;;;;;;;29.67;26.60;;;;;;;;;;5033713;28;20171;-64
2023/08/18 11:52:03;;;;;;;25.57;22.93;;;;;;;;;;5015567;28;20179;-65
2023/08/18 11:54:31;;;;;;;27.27;24.40;;;;;;;;;;5034116;28;20172;-65
2023/08/18 11:56:57;;;;;;;28.97;25.90;;;;;;;;;;5033274;28;20232;-65
2023/08/18 11:59:24;;;;;;;25.47;22.97;;;;;;;;;;5015733;28;20237;-64
2023/08/18 12:01:57;;;;;;;30.70;27.30;;;;;;;;;;5033393;28;20205;-65
2023/08/18 12:04:24;;;;;;;27.33;24.40;;;;;;;;;;5015073;28;20659;-65
2023/08/18 12:06:50;;;;;;;24.67;22.17;;;;;;;;;;5015110;28;20234;-65
2023/08/18 12:09:16;;;;;;;24.80;22.57;;;;;;;;;;5033366;28;20209;-64
2023/08/18 12:11:42;;;;;;;24.53;22.03;;;;;;;;;;5032772;28;20210;-65
2023/08/18 12:14:08;;;;;;;26.87;21.70;;;;;;;;;;5032744;28;20186;-65
2023/08/18 12:16:34;;;;;;;23.27;20.97;;;;;;;;;;5015179;28;20221;-65
2023/08/18 12:19:01;;;;;;;23.13;20.93;;;;;;;;;;5033343;28;20225;-65
2023/08/18 12:21:29;;;;;;;27.73;21.80;;;;;;;;;;5033713;28;20195;-66
2023/08/18 12:23:55;;;;;;;26.80;24.13;;;;;;;;;;5033789;28;20179;-66
2023/08/18 12:26:21;;;;;;;27.80;24.83;;;;;;;;;;5016238;28;20226;-65
2023/08/18 12:28:47;;;;;;;28.37;25.17;;;;;;;;;;5015622;28;20270;-65
2023/08/18 12:31:14;;;;;;;26.20;23.50;;;;;;;;;;5015743;28;20183;-66
2023/08/18 12:33:40;;;;;;;26.20;23.40;;;;;;;;;;5015417;28;20187;-65
2023/08/18 12:36:06;;;;;;;26.73;24.13;;;;;;;;;;5033406;28;20223;-64
2023/08/18 12:38:32;;;;;;;27.87;24.90;;;;;;;;;;5034192;28;20229;-63
2023/08/18 12:40:58;;;;;;;25.57;22.07;;;;;;;;;;5019610;28;20246;-66
2023/08/18 12:43:24;;;;;;;25.77;22.70;;;;;;;;;;5037073;28;20179;-69
2023/08/18 12:45:50;;;;;;;24.60;22.07;;;;;;;;;;5020165;28;20696;-66
2023/08/18 12:48:16;;;;;;;26.40;22.57;;;;;;;;;;5019345;28;20274;-65
2023/08/18 12:50:43;;;;;;;22.00;19.80;;;;;;;;;;5038454;28;20645;-65
2023/08/18 12:53:09;;;;;;;23.07;20.80;;;;;;;;;;5021592;28;20274;-68
2023/08/18 12:55:35;;;;;;;24.20;21.37;;;;;;;;;;5038791;28;20203;-65
2023/08/18 12:58:01;;;;;;;25.10;22.50;;;;;;;;;;5037017;28;20641;-65
2023/08/18 13:00:27;;;;;;;26.13;23.43;;;;;;;;;;5035114;28;20403;-66
2023/08/18 13:02:53;;;;;;;26.30;21.33;;;;;;;;;;5018528;28;20672;-65
2023/08/18 13:05:19;;;;;;;25.70;21.90;;;;;;;;;;5036648;28;20254;-64
2023/08/18 13:07:47;;;;;;;23.23;20.73;;;;;;;;;;5019073;28;20202;-65
2023/08/18 13:10:13;;;;;;;22.93;18.23;;;;;;;;;;5037001;28;20175;-65
2023/08/18 13:12:39;;;;;;;21.83;19.63;;;;;;;;;;5036551;28;20198;-66
2023/08/18 13:15:06;;;;;;;22.97;20.53;;;;;;;;;;5018601;28;20233;-66
2023/08/18 13:17:32;;;;;;;18.97;16.50;;;;;;;;;;5036698;28;20206;-64
2023/08/18 13:19:59;;;;;;;19.20;17.17;;;;;;;;;;5036576;28;20273;-70
2023/08/18 13:22:25;;;;;;;21.50;17.87;;;;;;;;;;5036926;28;20693;-67
2023/08/18 13:24:54;;;;;;;18.87;17.07;;;;;;;;;;5035873;28;20273;-66
2023/08/18 13:27:21;;;;;;;17.80;16.03;;;;;;;;;;5017772;28;20200;-65
2023/08/18 13:29:47;;;;;;;18.07;16.13;;;;;;;;;;5018191;28;20198;-65
2023/08/18 13:32:13;;;;;;;18.30;16.33;;;;;;;;;;5035764;28;20642;-67
2023/08/18 13:34:40;;;;;;;18.20;16.27;;;;;;;;;;5035370;28;20171;-66
2023/08/18 13:37:06;;;;;;;18.30;16.50;;;;;;;;;;5035465;28;20745;-67
2023/08/18 13:39:31;;;;;;;17.83;15.98;;;;;;;;;;5016509;28;20387;-66
2023/08/18 13:41:57;;;;;;;;;;;;;;;;;;5036148;28;20458;-64
2023/08/18 13:44:23;;;;;;;;;;;;;;;;;;5036289;28;19909;-65
2023/08/18 13:46:49;;;;;;;;;;;;;;;;;;5018553;28;19912;-66
2023/08/18 13:49:15;;;;;;;;;;;;;;;;;;5035899;28;19916;-64
2023/08/18 13:51:41;;;;;;;;;;;;;;;;;;5035707;28;19944;-64
2023/08/18 13:54:09;;;;;;;;;;;;;;;;;;5019764;28;20390;-66
2023/08/18 13:56:35;;;;;;;;;;;;;;;;;;5036486;28;19936;-67
2023/08/18 13:59:01;;;;;;;17.00;15.38;;;;;;;;;;5035364;28;20386;-65
2023/08/18 14:01:27;;;;;;;;;;;;;;;;;;5034895;28;20402;-66
2023/08/18 14:03:53;;;;;;;16.77;15.20;;;;;;;;;;5034855;28;20866;-67
2023/08/18 14:06:19;;;;;;;16.33;14.82;;;;;;;;;;5017294;28;20383;-65
2023/08/18 14:08:46;;;;;;;21.13;18.13;;;;;;;;;;5016856;28;20390;-66
2023/08/18 14:11:14;;;;;;;17.42;15.57;;;;;;;;;;5033667;28;20433;-67
2023/08/18 14:13:42;;;;;;;17.05;15.38;;;;;;;;;;5016706;28;20379;-66
2023/08/18 14:16:08;;;;;;;16.25;14.65;;;;;;;;;;5015916;28;20434;-66